Time;durP1;ratioP1;P1;durP2;ratioP2;P2;SDS_P1;SDS_P2;PMS_P1;PMS_P2;Temp;Humidity;BMP_temperature;BMP_pressure;BME280_temperature;BME280_humidity;BME280_pressure;Samples;Min_cycle;Max_cycle;Signal;HPM_P1;HPM_P2
2021/03/05 00:02:13;;;;;;;1.25;0.20;;;22.20;39.10;;;;;;5035659;28;20025;-83
2021/03/05 00:04:38;;;;;;;1.15;0.20;;;22.10;39.10;;;;;;5050247;28;20034;-83
2021/03/05 00:07:04;;;;;;;0.88;0.15;;;22.10;39.10;;;;;;5057900;28;20017;-83
2021/03/05 00:09:30;;;;;;;1.55;0.30;;;22.20;39.20;;;;;;5030455;28;20083;-83
2021/03/05 00:11:55;;;;;;;1.00;0.25;;;22.20;39.20;;;;;;5039488;28;20092;-83
2021/03/05 00:14:21;;;;;;;0.85;0.25;;;22.10;39.10;;;;;;5050087;28;20168;-83
2021/03/05 00:16:46;;;;;;;0.82;0.20;;;22.10;39.00;;;;;;5051660;28;20032;-83
2021/03/05 00:19:12;;;;;;;1.00;0.28;;;22.10;39.00;;;;;;5052914;28;20720;-82
2021/03/05 00:21:38;;;;;;;1.35;0.20;;;22.10;39.00;;;;;;5020971;28;20029;-82
2021/03/05 00:24:03;;;;;;;0.93;0.10;;;22.10;39.00;;;;;;5066138;28;20021;-82
2021/03/05 00:26:29;;;;;;;1.17;0.22;;;22.10;39.00;;;;;;5059239;28;20226;-81
2021/03/05 00:28:55;;;;;;;1.42;0.30;;;22.10;39.00;;;;;;5058552;28;20115;-82
2021/03/05 00:31:20;;;;;;;0.50;0.20;;;22.00;39.00;;;;;;5043692;28;20101;-82
2021/03/05 00:33:46;;;;;;;2.95;0.43;;;22.00;39.00;;;;;;5060947;28;20426;-82
2021/03/05 00:36:11;;;;;;;0.88;0.20;;;22.00;39.00;;;;;;5062284;28;20109;-82
2021/03/05 00:38:37;;;;;;;1.40;0.30;;;22.00;39.10;;;;;;5059225;28;20028;-82
2021/03/05 00:41:03;;;;;;;1.38;0.22;;;22.00;38.90;;;;;;5064571;28;20100;-82
2021/03/05 00:43:28;;;;;;;1.90;0.30;;;22.00;39.60;;;;;;5054907;28;20111;-82
2021/03/05 00:45:54;;;;;;;2.35;0.32;;;22.00;39.00;;;;;;5045874;28;20013;-82
2021/03/05 00:48:19;;;;;;;1.90;0.30;;;22.00;39.00;;;;;;5025978;28;20017;-82
2021/03/05 00:50:45;;;;;;;2.00;0.43;;;21.90;38.90;;;;;;5061429;28;20021;-82
2021/03/05 00:53:11;;;;;;;2.28;0.30;;;21.90;38.90;;;;;;5052015;28;20501;-82
2021/03/05 00:55:36;;;;;;;1.48;0.30;;;21.90;39.00;;;;;;5054716;28;20489;-82
2021/03/05 00:58:02;;;;;;;1.55;0.22;;;21.90;38.90;;;;;;5058095;28;20084;-82
2021/03/05 01:00:28;;;;;;;1.95;0.20;;;21.90;38.90;;;;;;5053569;28;20037;-82
2021/03/05 01:02:53;;;;;;;1.63;0.30;;;21.80;38.80;;;;;;5053993;28;20071;-83
2021/03/05 01:05:19;;;;;;;1.95;0.20;;;21.90;38.90;;;;;;5056910;28;20032;-82
2021/03/05 01:07:45;;;;;;;4.20;0.50;;;21.80;38.90;;;;;;5053397;28;20480;-82
2021/03/05 01:10:11;;;;;;;1.55;0.20;;;21.80;38.90;;;;;;5047029;28;20112;-82
2021/03/05 01:12:37;;;;;;;1.05;0.20;;;21.80;38.80;;;;;;5067530;28;20496;-83
2021/03/05 01:15:06;;;;;;;0.85;0.22;;;21.80;38.80;;;;;;5060666;28;20063;-83
2021/03/05 01:17:31;;;;;;;1.00;0.20;;;21.80;38.70;;;;;;5047111;28;20648;-82
2021/03/05 01:19:57;;;;;;;0.82;0.20;;;21.80;38.80;;;;;;5040278;28;20037;-83
2021/03/05 01:22:23;;;;;;;1.52;0.20;;;21.80;38.80;;;;;;5058367;28;20025;-83
2021/03/05 01:24:49;;;;;;;1.15;0.30;;;21.70;38.70;;;;;;5064272;28;20505;-83
2021/03/05 01:27:14;;;;;;;1.33;0.55;;;21.70;38.80;;;;;;5060746;28;20107;-83
2021/03/05 01:29:40;;;;;;;0.90;0.30;;;21.70;38.70;;;;;;5054648;28;20029;-83
2021/03/05 01:32:06;;;;;;;1.98;0.30;;;21.70;38.70;;;;;;5065973;28;20032;-83
2021/03/05 01:34:31;;;;;;;0.82;0.17;;;21.70;38.70;;;;;;5062360;28;20052;-83
2021/03/05 01:36:57;;;;;;;2.80;0.38;;;21.70;38.60;;;;;;5062735;28;20041;-82
2021/03/05 01:39:23;;;;;;;2.03;0.30;;;21.70;38.70;;;;;;5058356;28;20358;-82
2021/03/05 01:41:48;;;;;;;2.00;0.35;;;21.70;38.60;;;;;;5059312;28;20024;-83
2021/03/05 01:44:15;;;;;;;1.88;0.47;;;21.70;38.60;;;;;;5059743;28;20064;-83
2021/03/05 01:46:41;;;;;;;0.98;0.22;;;21.60;38.50;;;;;;5048604;28;20416;-82
2021/03/05 01:49:08;;;;;;;1.25;0.30;;;21.60;38.50;;;;;;5054354;28;20029;-81
2021/03/05 01:51:36;;;;;;;1.42;0.30;;;21.60;38.50;;;;;;5058791;28;20036;-81
2021/03/05 01:54:02;;;;;;;3.78;0.40;;;21.60;38.50;;;;;;5057352;28;20092;-82
2021/03/05 01:56:33;;;;;;;1.75;0.30;;;21.60;38.40;;;;;;5060572;28;20021;-81
2021/03/05 01:58:59;;;;;;;1.30;0.40;;;21.60;38.50;;;;;;5051253;28;20059;-82
2021/03/05 02:01:27;;;;;;;0.70;0.30;;;21.60;38.50;;;;;;5063321;28;20032;-82
2021/03/05 02:03:53;;;;;;;2.00;0.47;;;21.60;38.50;;;;;;5055739;28;20119;-81
2021/03/05 02:06:20;;;;;;;2.47;0.40;;;21.60;38.40;;;;;;5057470;28;20124;-81
2021/03/05 02:08:46;;;;;;;1.02;0.20;;;21.60;38.40;;;;;;5034884;28;20060;-82
2021/03/05 02:11:14;;;;;;;2.38;0.25;;;21.60;38.50;;;;;;5056497;28;20024;-82
2021/03/05 02:13:39;;;;;;;0.85;0.20;;;21.50;38.40;;;;;;5045139;28;20309;-82
2021/03/05 02:16:17;;;;;;;1.88;0.30;;;21.50;38.40;;;;;;5052242;28;20079;-82
2021/03/05 02:18:57;;;;;;;1.08;0.20;;;21.50;38.40;;;;;;5050019;28;20033;-82
2021/03/05 02:21:51;;;;;;;1.42;0.30;;;21.50;38.40;;;;;;5052164;28;20029;-82
2021/03/05 02:24:42;;;;;;;1.52;0.20;;;21.50;38.30;;;;;;5051786;28;20033;-82
2021/03/05 02:27:41;;;;;;;0.73;0.30;;;21.50;38.30;;;;;;5056063;28;20052;-81
2021/03/05 02:30:09;;;;;;;1.27;0.20;;;21.50;38.30;;;;;;5055984;28;20388;-82
2021/03/05 02:33:01;;;;;;;1.20;0.20;;;21.50;38.30;;;;;;5047274;28;20079;-81
2021/03/05 02:35:31;;;;;;;0.90;0.25;;;21.40;38.30;;;;;;5048168;28;20037;-82
2021/03/05 02:37:59;;;;;;;0.75;0.10;;;21.40;38.20;;;;;;5063262;28;20029;-82
2021/03/05 02:40:37;;;;;;;0.82;0.20;;;21.40;38.30;;;;;;5059069;28;20094;-82
2021/03/05 02:43:06;;;;;;;1.70;0.25;;;21.40;38.20;;;;;;5058772;28;20631;-82
2021/03/05 02:45:35;;;;;;;0.85;0.30;;;21.40;38.20;;;;;;5061855;28;20036;-82
2021/03/05 02:48:12;;;;;;;1.15;0.30;;;21.40;38.20;;;;;;5056803;28;20541;-82
2021/03/05 02:50:42;;;;;;;1.73;0.30;;;21.40;38.30;;;;;;5060309;28;20445;-81
2021/03/05 02:53:12;;;;;;;1.27;0.20;;;21.40;38.20;;;;;;5049657;28;20099;-82
2021/03/05 02:55:40;;;;;;;1.60;0.20;;;21.40;38.20;;;;;;5049639;28;20029;-82
2021/03/05 02:58:08;;;;;;;2.15;0.22;;;21.40;38.20;;;;;;5051157;28;20072;-82
2021/03/05 03:00:34;;;;;;;0.80;0.30;;;21.40;38.20;;;;;;5048079;28;20025;-81
2021/03/05 03:03:01;;;;;;;0.90;0.10;;;21.40;38.30;;;;;;5069119;28;20025;-82
2021/03/05 03:05:29;;;;;;;1.95;0.20;;;21.40;38.20;;;;;;5065031;28;20397;-81
2021/03/05 03:07:57;;;;;;;0.77;0.20;;;21.40;38.70;;;;;;5051820;28;20014;-81
2021/03/05 03:10:26;;;;;;;1.83;0.20;;;21.30;38.10;;;;;;5045142;28;20021;-82
2021/03/05 03:12:54;;;;;;;0.77;0.20;;;21.30;38.10;;;;;;5047438;28;20438;-82
2021/03/05 03:15:22;;;;;;;0.43;0.10;;;21.30;38.10;;;;;;5063279;28;20037;-82
2021/03/05 03:17:48;;;;;;;0.68;0.20;;;21.30;37.90;;;;;;5057028;28;20554;-83
2021/03/05 03:20:17;;;;;;;0.70;0.20;;;21.30;38.10;;;;;;5060956;28;20025;-82
2021/03/05 03:22:43;;;;;;;0.85;0.17;;;21.30;38.10;;;;;;5054725;28;20091;-82
2021/03/05 03:25:09;;;;;;;0.85;0.20;;;21.30;38.10;;;;;;5051918;28;20029;-82
2021/03/05 03:27:35;;;;;;;0.85;0.20;;;21.30;38.10;;;;;;5041879;28;20031;-83
2021/03/05 03:30:00;;;;;;;0.30;0.10;;;21.30;38.10;;;;;;5062758;28;20021;-83
2021/03/05 03:32:27;;;;;;;0.88;0.20;;;21.20;38.60;;;;;;5068224;28;20052;-82
2021/03/05 03:34:53;;;;;;;0.60;0.20;;;21.30;38.10;;;;;;5039015;28;20028;-82
2021/03/05 03:37:19;;;;;;;0.47;0.10;;;21.30;38.10;;;;;;5060082;28;20041;-82
2021/03/05 03:39:45;;;;;;;0.40;0.10;;;21.30;38.10;;;;;;5059074;28;20032;-82
2021/03/05 03:42:11;;;;;;;0.45;0.13;;;21.20;38.00;;;;;;5060685;28;20377;-83
2021/03/05 03:44:36;;;;;;;0.25;0.10;;;21.20;38.00;;;;;;5054382;28;20032;-83
2021/03/05 03:47:02;;;;;;;0.65;0.10;;;21.20;38.00;;;;;;5065112;28;20016;-83
2021/03/05 03:49:36;;;;;;;0.50;0.10;;;21.20;37.90;;;;;;5054447;28;20025;-82
2021/03/05 03:52:17;;;;;;;0.50;0.20;;;21.20;38.00;;;;;;5058674;28;20021;-82
2021/03/05 03:54:43;;;;;;;0.52;0.13;;;21.20;38.00;;;;;;5057497;28;20024;-83
2021/03/05 03:57:13;;;;;;;0.43;0.10;;;21.20;38.00;;;;;;5060593;28;20059;-83
2021/03/05 03:59:39;;;;;;;0.30;0.10;;;21.20;38.10;;;;;;5058028;28;20108;-82
2021/03/05 04:02:07;;;;;;;0.63;0.10;;;21.20;38.00;;;;;;5043658;28;20036;-83
2021/03/05 04:04:36;;;;;;;0.85;0.13;;;21.10;38.00;;;;;;5052948;28;20032;-82
2021/03/05 04:07:02;;;;;;;0.50;0.10;;;21.10;38.00;;;;;;5059201;28;20020;-83
2021/03/05 04:09:30;;;;;;;1.08;0.17;;;21.10;38.00;;;;;;5053021;28;20028;-82
2021/03/05 04:11:57;;;;;;;0.40;0.20;;;21.10;38.00;;;;;;5045534;28;20025;-81
2021/03/05 04:14:26;;;;;;;0.38;0.15;;;21.10;38.00;;;;;;5049757;28;20063;-82
2021/03/05 04:16:55;;;;;;;0.50;0.10;;;21.10;37.90;;;;;;5057329;28;20030;-83
2021/03/05 04:19:23;;;;;;;0.30;0.10;;;21.10;38.00;;;;;;5054628;28;20029;-82
2021/03/05 04:21:49;;;;;;;0.40;0.10;;;21.10;37.90;;;;;;5056097;28;20100;-82
2021/03/05 04:24:16;;;;;;;0.40;0.10;;;21.10;38.00;;;;;;5059574;28;20028;-82
2021/03/05 04:26:42;;;;;;;1.25;0.10;;;21.00;37.90;;;;;;5052689;28;20099;-82
2021/03/05 04:29:08;;;;;;;0.68;0.10;;;21.10;38.00;;;;;;5063283;28;20044;-82
2021/03/05 04:31:33;;;;;;;0.60;0.00;;;21.00;37.90;;;;;;5053222;28;20052;-81
2021/03/05 04:33:59;;;;;;;0.40;0.10;;;21.00;37.90;;;;;;5056914;28;20029;-81
2021/03/05 04:36:25;;;;;;;0.40;0.10;;;21.00;37.90;;;;;;5056520;28;20103;-82
2021/03/05 04:38:50;;;;;;;0.85;0.20;;;21.00;37.80;;;;;;5058061;28;20108;-82
2021/03/05 04:41:16;;;;;;;0.50;0.10;;;21.00;37.90;;;;;;5056032;28;20104;-81
2021/03/05 04:43:41;;;;;;;0.30;0.10;;;21.00;37.90;;;;;;5054682;28;20127;-81
2021/03/05 04:46:07;;;;;;;0.50;0.10;;;21.00;37.80;;;;;;5052637;28;20029;-82
2021/03/05 04:48:32;;;;;;;0.35;0.10;;;21.00;37.90;;;;;;5055921;28;20052;-81
2021/03/05 04:50:58;;;;;;;0.50;0.10;;;21.00;37.90;;;;;;5046865;28;20434;-81
2021/03/05 04:53:24;;;;;;;0.60;0.10;;;21.00;37.90;;;;;;5053027;28;20088;-82
2021/03/05 04:55:49;;;;;;;0.32;0.10;;;20.90;37.80;;;;;;5052554;28;20033;-82
2021/03/05 04:58:15;;;;;;;1.83;0.10;;;20.90;37.80;;;;;;5051584;28;20024;-82
2021/03/05 05:00:40;;;;;;;0.30;0.10;;;20.90;37.80;;;;;;5048905;28;20024;-82
2021/03/05 05:03:06;;;;;;;0.30;0.10;;;20.90;37.80;;;;;;5049842;28;20033;-81
2021/03/05 05:05:34;;;;;;;0.50;0.10;;;20.90;37.80;;;;;;5057092;28;20025;-82
2021/03/05 05:07:59;;;;;;;0.17;0.00;;;20.90;37.80;;;;;;5063138;28;20024;-82
2021/03/05 05:10:26;;;;;;;0.20;0.10;;;20.90;37.70;;;;;;5058644;28;20051;-81
2021/03/05 05:12:51;;;;;;;0.50;0.10;;;20.90;37.80;;;;;;5061053;28;20107;-82
2021/03/05 05:15:17;;;;;;;1.98;0.10;;;20.90;37.80;;;;;;5045792;28;20392;-81
2021/03/05 05:17:43;;;;;;;0.40;0.10;;;20.90;37.80;;;;;;5058714;28;20025;-82
2021/03/05 05:20:09;;;;;;;0.30;0.10;;;20.90;37.80;;;;;;5060813;28;20068;-81
2021/03/05 05:22:36;;;;;;;0.20;0.10;;;20.80;37.80;;;;;;5060313;28;20548;-82
2021/03/05 05:25:04;;;;;;;0.50;0.10;;;20.80;37.80;;;;;;5067147;28;20058;-82
2021/03/05 05:27:29;;;;;;;0.22;0.00;;;20.80;37.80;;;;;;5056115;28;20024;-82
2021/03/05 05:29:55;;;;;;;0.10;0.00;;;20.80;37.80;;;;;;5050079;28;20057;-82
2021/03/05 05:32:20;;;;;;;0.30;0.10;;;20.80;37.80;;;;;;5042201;28;20504;-82
2021/03/05 05:34:46;;;;;;;0.77;0.03;;;20.80;37.80;;;;;;5052671;28;20025;-82
2021/03/05 05:37:11;;;;;;;0.40;0.10;;;20.80;37.80;;;;;;5057074;28;20032;-82
2021/03/05 05:39:38;;;;;;;0.40;0.10;;;20.80;37.80;;;;;;5055378;28;20051;-82
2021/03/05 05:42:06;;;;;;;0.10;0.00;;;20.80;37.80;;;;;;5061521;28;20044;-82
2021/03/05 05:44:32;;;;;;;0.63;0.10;;;20.80;37.70;;;;;;5049367;28;20112;-82
2021/03/05 05:47:00;;;;;;;0.50;0.10;;;20.70;37.70;;;;;;5062887;28;20020;-82
2021/03/05 05:49:27;;;;;;;0.60;0.05;;;20.70;37.70;;;;;;5060076;28;20025;-82
2021/03/05 05:51:56;;;;;;;0.28;0.08;;;20.70;37.70;;;;;;5061678;28;20032;-82
2021/03/05 05:54:23;;;;;;;0.10;0.00;;;20.70;37.80;;;;;;5057354;28;20037;-82
2021/03/05 05:57:07;;;;;;;0.30;0.00;;;20.70;37.80;;;;;;5059310;28;20507;-82
2021/03/05 05:59:34;;;;;;;0.57;0.10;;;20.70;37.80;;;;;;5050252;28;20035;-82
2021/03/05 06:02:00;;;;;;;0.10;0.00;;;20.70;37.80;;;;;;5060954;28;20025;-82
2021/03/05 06:04:26;;;;;;;0.43;0.00;;;20.70;37.70;;;;;;5052340;28;20552;-81
2021/03/05 06:06:53;;;;;;;0.20;0.00;;;20.70;37.70;;;;;;5054018;28;20090;-81
2021/03/05 06:09:18;;;;;;;0.38;0.10;;;20.70;37.80;;;;;;5057774;28;20041;-81
2021/03/05 06:11:44;;;;;;;0.20;0.10;;;20.70;37.80;;;;;;5061992;28;21059;-82
2021/03/05 06:14:12;;;;;;;0.17;0.00;;;20.70;38.30;;;;;;5057909;28;20033;-82
2021/03/05 06:16:58;;;;;;;1.20;0.10;;;20.70;37.80;;;;;;5053188;28;20017;-82
2021/03/05 06:19:26;;;;;;;0.40;0.10;;;20.70;37.80;;;;;;5051615;28;20044;-82
2021/03/05 06:21:51;;;;;;;0.20;0.00;;;20.60;37.70;;;;;;5054644;28;20052;-81
2021/03/05 06:24:17;;;;;;;0.17;0.00;;;20.60;37.80;;;;;;5057278;28;20105;-81
2021/03/05 06:27:02;;;;;;;0.75;0.00;;;20.60;37.70;;;;;;5065259;28;20082;-81
2021/03/05 06:29:42;;;;;;;0.35;0.08;;;20.60;37.70;;;;;;5056713;28;20573;-82
2021/03/05 06:32:10;;;;;;;0.98;0.00;;;20.60;37.80;;;;;;5061552;28;20107;-82
2021/03/05 06:34:55;;;;;;;0.30;0.10;;;20.60;37.70;;;;;;5064335;28;20079;-82
2021/03/05 06:37:23;;;;;;;0.30;0.00;;;20.60;37.90;;;;;;5043435;28;20469;-81
2021/03/05 06:40:05;;;;;;;0.55;0.10;;;20.60;37.80;;;;;;5065269;28;20025;-81
2021/03/05 06:42:48;;;;;;;0.15;0.00;;;20.70;37.80;;;;;;5056936;28;20479;-81
2021/03/05 06:45:14;;;;;;;0.38;0.08;;;20.80;37.90;;;;;;5061137;28;20492;-81
2021/03/05 06:48:07;;;;;;;0.15;0.00;;;20.90;37.50;;;;;;5055623;28;20044;-82
2021/03/05 06:50:35;;;;;;;0.10;0.00;;;21.10;37.40;;;;;;5038864;28;20573;-82
2021/03/05 06:53:00;;;;;;;0.17;0.00;;;21.20;37.20;;;;;;5058951;28;20024;-83
2021/03/05 06:55:26;;;;;;;0.43;0.00;;;21.30;37.10;;;;;;5063768;28;20037;-83
2021/03/05 06:57:53;;;;;;;0.20;0.00;;;21.40;37.00;;;;;;5056862;28;20029;-82
2021/03/05 07:00:22;;;;;;;0.50;0.05;;;21.50;36.90;;;;;;5048138;28;20060;-83
2021/03/05 07:02:49;;;;;;;0.30;0.00;;;21.50;36.80;;;;;;5064917;28;20533;-84
2021/03/05 07:05:16;;;;;;;2.30;0.00;;;21.50;36.80;;;;;;5045073;28;20582;-84
2021/03/05 07:07:50;;;;;;;0.38;0.10;;;21.50;36.30;;;;;;5054786;28;20071;-84
2021/03/05 07:10:16;;;;;;;1.63;0.00;;;21.50;36.10;;;;;;5034386;28;20058;-83
2021/03/05 07:13:02;;;;;;;0.40;0.00;;;21.60;36.30;;;;;;5033142;28;20040;-84
2021/03/05 07:15:28;;;;;;;0.13;0.00;;;21.60;36.20;;;;;;5052521;28;20582;-85
2021/03/05 07:17:53;;;;;;;0.63;0.05;;;21.70;36.20;;;;;;5043216;28;20029;-84
2021/03/05 07:20:19;;;;;;;1.70;0.08;;;21.70;36.10;;;;;;5056891;28;20048;-84
2021/03/05 07:22:48;;;;;;;0.10;0.00;;;21.80;36.00;;;;;;5058174;28;20358;-84
2021/03/05 07:25:20;;;;;;;0.75;0.10;;;21.80;35.80;;;;;;5058117;28;20030;-84
2021/03/05 07:27:48;;;;;;;;;;;21.90;35.70;;;;;;5064654;28;20023;-84
2021/03/05 07:30:16;;;;;;;0.65;0.00;;;21.90;35.60;;;;;;5056427;28;20039;-84
2021/03/05 07:32:48;;;;;;;0.17;0.00;;;21.90;35.60;;;;;;5059660;28;20021;-83
2021/03/05 07:35:27;;;;;;;2.05;0.05;;;21.90;35.40;;;;;;5061934;28;20021;-83
2021/03/05 07:37:59;;;;;;;0.20;0.00;;;21.90;35.30;;;;;;5038688;28;20099;-83
2021/03/05 07:40:27;;;;;;;0.25;0.00;;;21.90;35.40;;;;;;5050845;28;20028;-83
2021/03/05 07:42:55;;;;;;;0.63;0.00;;;21.90;35.40;;;;;;5066728;28;20029;-83
2021/03/05 07:45:20;;;;;;;1.13;0.08;;;21.90;35.60;;;;;;5058803;28;20036;-83
2021/03/05 07:47:47;;;;;;;0.32;0.08;;;22.00;35.80;;;;;;5044868;28;20496;-83
2021/03/05 07:50:15;;;;;;;0.47;0.00;;;21.90;35.80;;;;;;5044527;28;20086;-83
2021/03/05 07:52:41;;;;;;;0.98;0.00;;;21.90;35.90;;;;;;5058278;28;20070;-83
2021/03/05 07:55:08;;;;;;;0.30;0.00;;;21.90;35.90;;;;;;5062776;28;20423;-83
2021/03/05 07:57:33;;;;;;;0.30;0.10;;;21.90;36.00;;;;;;5060912;28;20033;-83
2021/03/05 08:00:00;;;;;;;0.40;0.00;;;21.80;36.00;;;;;;5057296;28;20044;-82
2021/03/05 08:02:45;;;;;;;0.22;0.00;;;21.80;35.80;;;;;;5051299;28;20032;-82
2021/03/05 08:05:29;;;;;;;0.35;0.00;;;21.90;36.00;;;;;;5058695;28;20032;-81
2021/03/05 08:08:20;;;;;;;0.90;0.00;;;21.90;36.00;;;;;;5055914;28;20029;-83
2021/03/05 08:10:55;;;;;;;0.67;0.00;;;22.00;36.00;;;;;;5055630;28;20090;-82
2021/03/05 08:13:53;;;;;;;0.38;0.10;;;21.90;36.10;;;;;;5055790;28;20038;-82
2021/03/05 08:16:31;;;;;;;0.95;0.10;;;21.90;36.10;;;;;;5045428;28;20055;-82
2021/03/05 08:19:06;;;;;;;0.60;0.08;;;21.90;36.10;;;;;;5059347;28;20025;-83
2021/03/05 08:21:50;;;;;;;0.45;0.10;;;21.80;36.10;;;;;;5040847;28;20088;-83
2021/03/05 08:24:39;;;;;;;1.20;0.00;;;21.90;36.10;;;;;;5055477;28;20035;-82
2021/03/05 08:27:13;;;;;;;2.85;0.10;;;21.90;36.20;;;;;;5040117;28;20041;-83
2021/03/05 08:30:01;;;;;;;0.38;0.10;;;21.80;36.20;;;;;;5045086;28;20035;-82
2021/03/05 08:32:33;;;;;;;0.60;0.00;;;21.80;36.20;;;;;;5051438;28;20017;-83
2021/03/05 08:35:01;;;;;;;;;;;21.80;36.10;;;;;;5060624;28;20032;-83
2021/03/05 08:37:31;;;;;;;1.58;0.10;;;21.80;36.20;;;;;;5040605;28;19956;-84
2021/03/05 08:40:17;;;;;;;0.40;0.10;;;21.90;36.50;;;;;;5055516;28;20051;-83
2021/03/05 08:42:46;;;;;;;0.90;0.20;;;21.90;36.90;;;;;;5056366;28;20033;-82
2021/03/05 08:45:14;;;;;;;0.30;0.10;;;22.00;36.90;;;;;;5041228;28;20043;-83
2021/03/05 08:47:54;;;;;;;0.30;0.05;;;22.00;36.70;;;;;;5059447;28;20119;-83
2021/03/05 08:50:32;;;;;;;0.95;0.10;;;22.00;37.00;;;;;;5052179;28;20041;-84
2021/03/05 08:53:13;;;;;;;0.50;0.10;;;22.00;37.00;;;;;;5055554;28;20028;-79
2021/03/05 08:55:42;;;;;;;0.52;0.10;;;22.00;37.00;;;;;;5053534;28;20037;-82
2021/03/05 08:58:08;;;;;;;0.47;0.10;;;22.00;37.30;;;;;;5063975;28;20072;-82
2021/03/05 09:00:36;;;;;;;0.40;0.10;;;22.00;36.80;;;;;;5056905;28;20041;-81
2021/03/05 09:03:12;;;;;;;2.83;0.20;;;;;;;;;;5039797;28;20066;-81
2021/03/05 09:05:41;;;;;;;0.50;0.10;;;22.10;36.80;;;;;;5060542;28;20040;-82
2021/03/05 09:08:09;;;;;;;0.75;0.20;;;22.10;36.90;;;;;;5058712;28;20029;-82
2021/03/05 09:10:47;;;;;;;0.70;0.20;;;22.10;37.00;;;;;;5041658;28;20036;-82
2021/03/05 09:13:16;;;;;;;2.53;0.20;;;22.10;37.20;;;;;;5056582;28;20408;-82
2021/03/05 09:15:46;;;;;;;1.05;0.20;;;22.10;37.00;;;;;;5060597;28;20037;-82
2021/03/05 09:18:15;;;;;;;1.15;0.30;;;22.10;36.90;;;;;;5057718;28;20358;-80
2021/03/05 09:20:50;;;;;;;0.93;0.20;;;22.10;36.80;;;;;;5057544;28;20036;-84
2021/03/05 09:23:17;;;;;;;0.70;0.20;;;22.10;37.00;;;;;;5039523;28;20032;-81
2021/03/05 09:25:50;;;;;;;0.80;0.30;;;22.20;37.10;;;;;;5054753;28;20038;-83
2021/03/05 09:28:17;;;;;;;2.67;0.20;;;22.20;37.50;;;;;;5053848;28;20092;-84
2021/03/05 09:30:47;;;;;;;1.60;0.30;;;22.20;37.60;;;;;;5056369;28;20056;-83
2021/03/05 09:33:13;;;;;;;1.13;0.30;;;22.20;37.40;;;;;;5060409;28;20029;-80
2021/03/05 09:35:38;;;;;;;0.50;0.30;;;22.20;37.40;;;;;;5053346;28;20040;-81
2021/03/05 09:38:05;;;;;;;1.10;0.40;;;22.20;37.50;;;;;;5059565;28;20032;-81
2021/03/05 09:40:31;;;;;;;3.67;0.32;;;22.20;37.60;;;;;;5053755;28;20032;-83
2021/03/05 09:42:58;;;;;;;0.82;0.20;;;22.20;37.50;;;;;;5060382;28;20024;-83
2021/03/05 09:45:52;;;;;;;0.90;0.30;;;22.30;37.60;;;;;;5052053;28;20029;-85
2021/03/05 09:48:31;;;;;;;0.80;0.15;;;22.30;37.60;;;;;;5061431;28;20113;-86
2021/03/05 09:51:00;;;;;;;2.38;0.20;;;22.30;37.60;;;;;;5046687;28;20017;-87
2021/03/05 09:53:31;;;;;;;0.73;0.30;;;22.30;37.80;;;;;;5052839;28;20671;-84
2021/03/05 09:56:05;;;;;;;0.88;0.20;;;22.40;37.30;;;;;;5064376;28;20395;-82
2021/03/05 09:58:31;;;;;;;0.50;0.20;;;22.40;36.60;;;;;;5049690;28;20199;-84
2021/03/05 10:00:57;;;;;;;0.70;0.30;;;22.40;36.50;;;;;;5050450;28;20538;-79
2021/03/05 10:03:24;;;;;;;0.55;0.20;;;22.30;36.40;;;;;;5038678;28;20029;-80
2021/03/05 10:05:50;;;;;;;4.20;0.20;;;22.40;36.50;;;;;;5049745;28;20021;-82
2021/03/05 10:08:24;;;;;;;0.90;0.40;;;22.40;36.60;;;;;;5047824;28;20028;-82
2021/03/05 10:11:12;;;;;;;0.88;0.20;;;22.40;37.00;;;;;;5050364;28;20036;-82
2021/03/05 10:13:41;;;;;;;1.00;0.52;;;22.40;37.10;;;;;;5044113;28;20051;-83
2021/03/05 10:16:11;;;;;;;1.70;0.40;;;22.40;37.00;;;;;;5061436;28;20028;-78
2021/03/05 10:18:38;;;;;;;1.33;0.43;;;22.40;37.20;;;;;;5059032;28;20033;-78
2021/03/05 10:21:07;;;;;;;0.90;0.28;;;22.40;37.10;;;;;;5057185;28;20047;-83
2021/03/05 10:23:32;;;;;;;1.33;0.50;;;22.50;37.20;;;;;;5056961;28;20193;-81
2021/03/05 10:25:58;;;;;;;1.38;0.30;;;22.50;37.20;;;;;;5058661;28;20075;-83
2021/03/05 10:28:26;;;;;;;0.95;0.38;;;22.60;37.10;;;;;;5055726;28;20369;-81
2021/03/05 10:30:52;;;;;;;0.93;0.32;;;22.60;37.10;;;;;;5057840;28;20472;-80
2021/03/05 10:33:37;;;;;;;0.82;0.38;;;22.60;37.10;;;;;;5050011;28;20029;-81
2021/03/05 10:36:04;;;;;;;0.60;0.20;;;22.70;37.10;;;;;;5052666;28;20075;-82
2021/03/05 10:38:30;;;;;;;0.80;0.20;;;22.70;37.20;;;;;;5046933;28;20059;-80
2021/03/05 10:40:56;;;;;;;0.52;0.20;;;22.70;37.20;;;;;;5038081;28;20107;-81
2021/03/05 10:43:21;;;;;;;1.90;0.30;;;22.70;37.30;;;;;;5058912;28;20032;-81
2021/03/05 10:45:47;;;;;;;0.70;0.20;;;22.70;37.30;;;;;;5048774;28;20103;-81
2021/03/05 10:48:13;;;;;;;0.70;0.20;;;22.70;37.50;;;;;;5054877;28;20117;-81
2021/03/05 10:50:38;;;;;;;1.30;0.20;;;22.70;37.60;;;;;;5058553;28;20512;-79
2021/03/05 10:53:04;;;;;;;0.70;0.20;;;22.70;37.50;;;;;;5057030;28;20028;-79
2021/03/05 10:55:30;;;;;;;0.77;0.20;;;22.70;37.60;;;;;;5055200;28;20157;-81
2021/03/05 10:57:55;;;;;;;2.55;0.25;;;22.70;37.30;;;;;;5056872;28;20025;-82
2021/03/05 11:00:21;;;;;;;0.77;0.38;;;22.70;37.40;;;;;;5057687;28;20044;-82
2021/03/05 11:02:47;;;;;;;0.60;0.15;;;22.70;37.60;;;;;;5052857;28;20040;-83
2021/03/05 11:05:13;;;;;;;0.40;0.20;;;22.70;37.40;;;;;;5052534;28;20029;-80
2021/03/05 11:07:38;;;;;;;0.60;0.17;;;22.70;37.50;;;;;;5053601;28;20040;-80
2021/03/05 11:10:04;;;;;;;1.00;0.25;;;22.70;37.40;;;;;;5059792;28;20028;-81
2021/03/05 11:12:30;;;;;;;0.85;0.20;;;22.70;37.40;;;;;;5063055;28;20052;-82
2021/03/05 11:14:55;;;;;;;2.00;0.52;;;22.70;38.60;;;;;;5039583;28;20016;-81
2021/03/05 11:17:22;;;;;;;2.85;0.20;;;22.70;38.10;;;;;;5059490;28;20029;-81
2021/03/05 11:19:47;;;;;;;0.75;0.22;;;22.70;38.70;;;;;;5058625;28;20028;-82
2021/03/05 11:22:13;;;;;;;0.93;0.30;;;22.70;38.40;;;;;;5035914;28;20086;-80
2021/03/05 11:24:39;;;;;;;2.35;0.28;;;22.70;38.90;;;;;;5059934;28;20036;-83
2021/03/05 11:27:05;;;;;;;2.15;0.20;;;22.70;39.20;;;;;;5052873;28;20025;-82
2021/03/05 11:29:31;;;;;;;1.48;0.30;;;22.70;39.30;;;;;;5036898;28;20392;-79
2021/03/05 11:31:57;;;;;;;0.63;0.30;;;22.70;39.90;;;;;;5057632;28;20020;-80
2021/03/05 11:34:23;;;;;;;0.65;0.15;;;22.70;39.30;;;;;;5058826;28;20508;-83
2021/03/05 11:36:50;;;;;;;0.73;0.28;;;22.70;39.80;;;;;;5062698;28;20064;-84
2021/03/05 11:39:16;;;;;;;0.40;0.17;;;22.70;39.20;;;;;;5041687;28;20040;-85
2021/03/05 11:41:41;;;;;;;0.93;0.22;;;22.70;39.40;;;;;;5060202;28;20033;-80
2021/03/05 11:44:07;;;;;;;0.70;0.13;;;22.70;38.80;;;;;;5056597;28;20115;-80
2021/03/05 11:46:33;;;;;;;1.02;0.20;;;22.70;38.30;;;;;;5065317;28;20029;-80
2021/03/05 11:48:59;;;;;;;1.25;0.10;;;22.70;38.60;;;;;;5064124;28;20033;-80
2021/03/05 11:51:24;;;;;;;0.40;0.10;;;22.80;38.00;;;;;;5064181;28;20690;-80
2021/03/05 11:53:50;;;;;;;1.33;0.40;;;22.80;38.70;;;;;;5070648;28;20076;-79
2021/03/05 11:56:17;;;;;;;1.25;0.30;;;22.80;38.20;;;;;;5074210;28;20028;-79
2021/03/05 11:58:42;;;;;;;1.13;0.17;;;22.80;38.90;;;;;;5073678;28;20308;-82
2021/03/05 12:01:08;;;;;;;0.52;0.15;;;22.80;38.00;;;;;;5071599;28;20025;-81
2021/03/05 12:03:33;;;;;;;0.70;0.20;;;22.80;38.20;;;;;;5075995;28;20102;-81
2021/03/05 12:06:00;;;;;;;0.80;0.20;;;22.80;39.10;;;;;;5078204;28;20068;-82
2021/03/05 12:08:26;;;;;;;1.02;0.10;;;22.80;39.60;;;;;;5075394;28;20036;-81
2021/03/05 12:10:52;;;;;;;1.17;0.40;;;22.80;38.60;;;;;;5076848;28;20125;-79
2021/03/05 12:13:18;;;;;;;0.90;0.20;;;22.80;37.90;;;;;;5074092;28;20044;-80
2021/03/05 12:15:44;;;;;;;0.80;0.30;;;22.80;37.30;;;;;;5077665;28;20033;-80
2021/03/05 12:18:11;;;;;;;0.90;0.20;;;22.80;37.50;;;;;;5076644;28;20089;-81
2021/03/05 12:20:37;;;;;;;1.40;0.43;;;22.90;37.90;;;;;;5077454;28;20033;-81
2021/03/05 12:23:03;;;;;;;0.90;0.30;;;22.90;38.90;;;;;;5074962;28;20028;-81
2021/03/05 12:25:29;;;;;;;0.98;0.20;;;22.80;37.70;;;;;;5077244;28;20055;-81
2021/03/05 12:27:54;;;;;;;0.50;0.20;;;22.80;37.50;;;;;;5083109;28;20028;-87
2021/03/05 12:30:21;;;;;;;0.68;0.20;;;22.80;39.70;;;;;;5079155;28;20670;-83
2021/03/05 12:32:46;;;;;;;0.70;0.20;;;22.90;39.70;;;;;;5074159;28;20055;-81
2021/03/05 12:35:14;;;;;;;0.70;0.47;;;22.90;39.60;;;;;;5070356;28;20451;-78
2021/03/05 12:37:40;;;;;;;0.88;0.20;;;22.90;38.80;;;;;;5078844;28;20017;-82
2021/03/05 12:40:07;;;;;;;3.08;0.45;;;22.90;38.50;;;;;;5077846;28;20089;-80
2021/03/05 12:42:34;;;;;;;1.13;0.30;;;22.90;39.20;;;;;;5075243;28;20066;-86
2021/03/05 12:44:59;;;;;;;0.68;0.32;;;22.90;39.30;;;;;;5062559;28;20055;-87
2021/03/05 12:47:25;;;;;;;1.13;0.30;;;22.90;39.50;;;;;;5064170;28;20056;-81
2021/03/05 12:49:50;;;;;;;2.03;0.40;;;22.90;39.80;;;;;;5076139;28;20066;-80
2021/03/05 12:52:16;;;;;;;1.35;0.50;;;22.90;39.00;;;;;;5074839;28;20060;-80
2021/03/05 12:54:42;;;;;;;4.00;0.68;;;22.90;39.10;;;;;;5073771;28;20012;-79
2021/03/05 12:57:07;;;;;;;0.95;0.50;;;22.90;39.80;;;;;;5077890;28;20085;-79